Time;durP1;ratioP1;P1;durP2;ratioP2;P2;SDS_P1;SDS_P2;PMS_P1;PMS_P2;Temp;Humidity;BMP_temperature;BMP_pressure;BME280_temperature;BME280_humidity;BME280_pressure;Samples;Min_cycle;Max_cycle;Signal;HPM_P1;HPM_P2
2022/10/23 00:00:29;;;;;;;8.18;2.58;;;;;;;10.73;100.00;101338.34;6296162;28;20067;-76
2022/10/23 00:03:30;;;;;;;5.07;2.38;;;;;;;10.73;100.00;101340.13;6296772;28;20044;-76
2022/10/23 00:06:33;;;;;;;2.85;2.08;;;;;;;10.71;100.00;101336.69;6296485;28;20081;-76
2022/10/23 00:09:35;;;;;;;2.67;1.77;;;;;;;10.72;100.00;101344.53;6296653;28;20044;-76
2022/10/23 00:12:38;;;;;;;3.45;2.35;;;;;;;10.70;100.00;101348.13;6296195;28;20045;-76
2022/10/23 00:15:39;;;;;;;5.35;2.10;;;;;;;10.71;100.00;101345.44;6296430;28;20044;-75
2022/10/23 00:18:41;;;;;;;5.00;2.50;;;;;;;10.72;100.00;101343.66;6296699;28;20057;-77
2022/10/23 00:21:43;;;;;;;4.75;2.13;;;;;;;10.73;100.00;101343.59;6296213;28;20052;-76
2022/10/23 00:24:44;;;;;;;4.25;2.13;;;;;;;10.75;100.00;101349.63;6296044;28;20045;-77
2022/10/23 00:27:47;;;;;;;4.95;2.47;;;;;;;10.76;100.00;101338.19;6296788;28;20059;-76
2022/10/23 00:30:48;;;;;;;2.50;1.70;;;;;;;10.77;100.00;101336.44;6295845;28;20048;-76
2022/10/23 00:33:51;;;;;;;4.22;2.42;;;;;;;10.78;100.00;101339.00;6296140;28;20052;-76
2022/10/23 00:36:52;;;;;;;3.85;2.10;;;;;;;10.75;100.00;101333.88;6296242;28;20059;-76
2022/10/23 00:39:54;;;;;;;2.95;1.80;;;;;;;10.76;100.00;101335.56;6296048;28;20052;-76
2022/10/23 00:42:57;;;;;;;4.85;1.70;;;;;;;10.76;100.00;101332.94;6296518;28;20404;-76
2022/10/23 00:45:58;;;;;;;4.28;1.98;;;;;;;10.75;100.00;101325.97;6300816;28;20051;-76
2022/10/23 00:49:00;;;;;;;4.18;2.33;;;;;;;10.74;100.00;101321.66;6301071;28;20051;-77
2022/10/23 00:52:04;;;;;;;3.33;2.13;;;;;;;10.75;100.00;101314.59;6300380;28;20059;-76
2022/10/23 00:55:06;;;;;;;2.47;1.75;;;;;;;10.73;100.00;101313.84;6300857;28;20130;-76
2022/10/23 00:58:09;;;;;;;3.72;2.28;;;;;;;10.72;100.00;101315.63;6300637;28;20059;-76
2022/10/23 01:01:16;;;;;;;3.92;2.20;;;;;;;10.70;100.00;101317.44;6300633;28;20044;-76
2022/10/23 01:04:18;;;;;;;4.05;2.17;;;;;;;10.70;100.00;101309.56;6300371;28;20044;-76
2022/10/23 01:07:27;;;;;;;3.45;1.88;;;;;;;10.68;100.00;101300.91;6300748;28;20044;-76
2022/10/23 01:10:34;;;;;;;3.22;2.03;;;;;;;10.68;100.00;101295.66;6300111;28;20488;-76
2022/10/23 01:13:44;;;;;;;3.72;1.92;;;;;;;10.68;100.00;101293.00;6300771;28;20492;-76
2022/10/23 01:16:56;;;;;;;5.22;2.10;;;;;;;10.66;100.00;101305.34;6300560;28;20055;-76
2022/10/23 01:20:10;;;;;;;3.35;2.03;;;;;;;10.61;100.00;101302.94;6250442;28;20513;-76
2022/10/23 01:23:20;;;;;;;2.78;2.10;;;;;;;10.62;100.00;101302.00;6250469;28;20053;-76
2022/10/23 01:26:40;;;;;;;3.65;2.40;;;;;;;10.60;100.00;101311.75;6250409;28;20046;-76
2022/10/23 01:29:46;;;;;;;7.22;2.03;;;;;;;10.60;100.00;101303.00;6250633;28;20057;-76
2022/10/23 01:32:52;;;;;;;5.45;2.83;;;;;;;10.59;100.00;101307.41;6250537;28;20524;-76
2022/10/23 01:35:58;;;;;;;8.68;2.72;;;;;;;10.58;100.00;101307.47;6250137;28;20046;-76
2022/10/23 01:39:07;;;;;;;2.45;1.80;;;;;;;10.54;100.00;101301.53;6250184;28;20520;-76
2022/10/23 01:42:11;;;;;;;4.97;2.53;;;;;;;10.50;100.00;101299.09;6250035;28;20520;-76
2022/10/23 01:45:20;;;;;;;2.90;1.92;;;;;;;10.48;100.00;101303.53;6250004;28;20076;-76
2022/10/23 01:48:26;;;;;;;3.17;1.92;;;;;;;10.47;100.00;101304.47;6250319;28;20505;-76
2022/10/23 01:51:30;;;;;;;6.32;2.42;;;;;;;10.42;100.00;101302.03;6249741;28;20054;-76
2022/10/23 01:54:35;;;;;;;2.97;2.50;;;;;;;10.38;100.00;101296.06;6249111;28;20053;-76
2022/10/23 01:57:39;;;;;;;5.28;2.10;;;;;;;10.34;100.00;101296.28;6250104;28;20057;-76
2022/10/23 02:00:45;;;;;;;5.22;2.35;;;;;;;10.31;100.00;101299.00;6249463;28;20053;-76
2022/10/23 02:03:48;;;;;;;2.95;2.08;;;;;;;10.30;100.00;101300.78;6249678;28;20057;-76
2022/10/23 02:06:49;;;;;;;4.95;2.13;;;;;;;10.26;100.00;101307.09;6249672;28;20049;-76
2022/10/23 02:09:51;;;;;;;3.15;2.00;;;;;;;10.22;100.00;101292.38;6249391;28;20049;-76
2022/10/23 02:12:58;;;;;;;4.38;2.30;;;;;;;10.20;100.00;101291.56;6249297;28;20049;-76
2022/10/23 02:16:08;;;;;;;6.78;2.28;;;;;;;10.16;100.00;101296.09;6249578;28;20049;-76
2022/10/23 02:19:17;;;;;;;2.67;1.77;;;;;;;10.12;100.00;101285.78;6249279;28;20050;-76
2022/10/23 02:22:25;;;;;;;5.45;2.60;;;;;;;10.06;100.00;101289.53;6249312;28;20505;-76
2022/10/23 02:25:33;;;;;;;3.25;2.20;;;;;;;10.04;100.00;101282.66;6248751;28;20052;-76
2022/10/23 02:28:40;;;;;;;3.83;2.00;;;;;;;10.03;100.00;101283.56;6249502;28;20515;-76
2022/10/23 02:31:42;;;;;;;7.95;2.30;;;;;;;9.98;100.00;101281.13;6248747;28;20049;-76
2022/10/23 02:34:44;;;;;;;3.17;1.85;;;;;;;9.95;100.00;101278.66;6248613;28;20397;-76
2022/10/23 02:37:52;;;;;;;4.03;2.25;;;;;;;9.95;100.00;101288.28;6249332;28;20053;-76
2022/10/23 02:40:57;;;;;;;4.57;1.58;;;;;;;9.95;100.00;101290.91;6248609;28;20075;-76
2022/10/23 02:44:14;;;;;;;2.85;2.05;;;;;;;9.93;100.00;101290.97;6248588;28;20060;-76
2022/10/23 02:47:30;;;;;;;5.68;1.95;;;;;;;9.96;100.00;101269.00;6247504;28;20639;-76
2022/10/23 02:50:37;;;;;;;5.93;2.25;;;;;;;9.95;100.00;101267.28;6248230;28;20164;-76
2022/10/23 02:53:49;;;;;;;2.50;2.10;;;;;;;9.95;100.00;101283.03;6249131;28;20052;-76
2022/10/23 02:56:57;;;;;;;2.92;2.20;;;;;;;9.93;100.00;101275.22;6249143;28;20060;-76
2022/10/23 03:00:09;;;;;;;2.83;2.10;;;;;;;9.89;100.00;101271.88;6248500;28;20049;-75
2022/10/23 03:03:17;;;;;;;4.72;1.98;;;;;;;9.88;100.00;101266.69;6249607;28;20088;-75
2022/10/23 03:06:19;;;;;;;3.53;2.38;;;;;;;9.86;100.00;101263.28;6247934;28;20049;-76
2022/10/23 03:09:20;;;;;;;6.45;2.50;;;;;;;9.85;100.00;101254.53;6249042;28;20080;-76
2022/10/23 03:12:22;;;;;;;3.08;2.05;;;;;;;9.87;100.00;101251.88;6248631;28;20416;-75
2022/10/23 03:15:23;;;;;;;3.97;1.90;;;;;;;9.84;100.00;101244.09;6248111;28;20513;-76
2022/10/23 03:18:26;;;;;;;2.92;2.00;;;;;;;9.85;100.00;101243.19;6248410;28;20053;-76
2022/10/23 03:21:27;;;;;;;3.72;2.17;;;;;;;9.87;100.00;101244.84;6248295;28;20053;-76
2022/10/23 03:24:29;;;;;;;2.75;2.10;;;;;;;9.87;100.00;101242.22;6247881;28;20052;-76
2022/10/23 03:27:30;;;;;;;3.45;2.05;;;;;;;9.84;100.00;101229.22;6248247;28;20053;-76
2022/10/23 03:30:32;;;;;;;6.05;1.85;;;;;;;9.81;100.00;101229.38;6247604;28;20054;-76
2022/10/23 03:33:34;;;;;;;3.50;2.38;;;;;;;9.78;100.00;101226.00;6248192;28;20053;-76
2022/10/23 03:36:36;;;;;;;5.03;2.22;;;;;;;9.76;100.00;101214.69;6247978;28;20060;-76
2022/10/23 03:39:37;;;;;;;2.90;1.98;;;;;;;9.75;100.00;101213.84;6247942;28;20046;-75
2022/10/23 03:42:39;;;;;;;3.72;2.22;;;;;;;9.74;100.00;101213.94;6247655;28;20049;-76
2022/10/23 03:45:40;;;;;;;2.97;2.13;;;;;;;9.74;100.00;101220.03;6247280;28;20068;-76
2022/10/23 03:48:43;;;;;;;3.40;1.58;;;;;;;9.72;100.00;101213.13;6247983;28;20049;-76
2022/10/23 03:51:50;;;;;;;4.35;1.80;;;;;;;9.70;100.00;101218.44;6247160;28;20060;-76
2022/10/23 03:54:52;;;;;;;5.80;1.95;;;;;;;9.68;100.00;101209.78;6247212;28;20042;-76
2022/10/23 03:57:53;;;;;;;4.22;2.00;;;;;;;9.63;100.00;101212.63;6247422;28;20056;-76
2022/10/23 04:00:55;;;;;;;3.25;1.80;;;;;;;9.61;100.00;101217.06;6247159;28;20050;-76
2022/10/23 04:03:57;;;;;;;2.28;1.63;;;;;;;9.63;100.00;101212.63;6246928;28;20053;-75
2022/10/23 04:06:59;;;;;;;2.83;1.95;;;;;;;9.60;100.00;101215.34;6247429;28;20060;-76
2022/10/23 04:10:00;;;;;;;2.45;1.73;;;;;;;9.55;100.00;101206.84;6246942;28;20069;-76
2022/10/23 04:13:02;;;;;;;2.83;1.73;;;;;;;9.54;100.00;101205.13;6246978;28;20053;-75
2022/10/23 04:16:03;;;;;;;3.78;1.90;;;;;;;9.50;100.00;101210.56;6247132;28;20053;-76
2022/10/23 04:19:06;;;;;;;3.90;1.90;;;;;;;9.47;100.00;101210.69;6246816;28;20424;-75
2022/10/23 04:22:08;;;;;;;3.45;1.80;;;;;;;9.46;100.00;101212.47;6246679;28;20497;-76
2022/10/23 04:25:09;;;;;;;3.03;2.10;;;;;;;9.45;100.00;101213.38;6246767;28;20417;-76
2022/10/23 04:28:11;;;;;;;3.95;1.55;;;;;;;9.43;100.00;101209.09;6246896;28;20042;-76
2022/10/23 04:31:12;;;;;;;3.38;1.40;;;;;;;9.39;100.00;101216.25;6246669;28;20406;-76
2022/10/23 04:34:15;;;;;;;3.83;2.00;;;;;;;9.38;100.00;101202.28;6246687;28;20076;-76
2022/10/23 04:37:17;;;;;;;3.17;1.80;;;;;;;9.39;100.00;101211.00;6246884;28;20050;-76
2022/10/23 04:40:18;;;;;;;4.05;1.42;;;;;;;9.37;100.00;101211.06;6246241;28;20524;-76
2022/10/23 04:43:20;;;;;;;3.47;1.75;;;;;;;9.35;100.00;101217.28;6246463;28;20052;-76
2022/10/23 04:46:21;;;;;;;3.58;2.08;;;;;;;9.31;100.00;101211.31;6246368;28;20049;-76
2022/10/23 04:49:24;;;;;;;3.03;2.03;;;;;;;9.29;100.00;101217.53;6246660;28;20057;-76
2022/10/23 04:52:25;;;;;;;2.58;1.83;;;;;;;9.29;100.00;101210.50;6246286;28;20049;-76
2022/10/23 04:55:27;;;;;;;3.65;2.28;;;;;;;9.26;100.00;101213.25;6246343;28;20045;-76
2022/10/23 04:58:29;;;;;;;3.20;1.67;;;;;;;9.26;100.00;101215.03;6246518;28;20057;-76
2022/10/23 05:01:30;;;;;;;6.15;2.33;;;;;;;9.27;100.00;101212.34;6246261;28;20045;-76
2022/10/23 05:04:33;;;;;;;3.22;1.65;;;;;;;9.25;100.00;101210.69;6246238;28;20057;-76
2022/10/23 05:07:35;;;;;;;4.60;2.00;;;;;;;9.24;100.00;101209.84;6246502;28;20079;-76
2022/10/23 05:10:37;;;;;;;2.10;1.48;;;;;;;9.23;100.00;101205.53;6246029;28;20053;-75
2022/10/23 05:13:38;;;;;;;3.17;1.60;;;;;;;9.19;100.00;101209.19;6264680;28;20497;-76
2022/10/23 05:16:44;;;;;;;5.10;1.70;;;;;;;9.17;100.00;101213.63;6270558;28;20049;-76
2022/10/23 05:19:53;;;;;;;2.42;1.63;;;;;;;9.16;100.00;101206.69;6270740;28;20053;-76
2022/10/23 05:22:56;;;;;;;2.88;1.45;;;;;;;9.20;100.00;101204.78;6270906;28;20052;-76
2022/10/23 05:25:58;;;;;;;4.07;1.58;;;;;;;9.19;100.00;101205.72;6270802;28;20056;-76
2022/10/23 05:28:59;;;;;;;1.88;1.42;;;;;;;9.16;100.00;101196.19;6268051;28;20053;-75
2022/10/23 05:32:05;;;;;;;3.13;1.98;;;;;;;9.13;100.00;101191.09;6258558;28;20072;-75
2022/10/23 05:35:11;;;;;;;4.18;1.98;;;;;;;9.13;100.00;101183.22;6261454;28;20052;-76
2022/10/23 05:38:14;;;;;;;10.98;2.28;;;;;;;9.12;100.00;101179.72;6258365;28;20080;-76
2022/10/23 05:41:16;;;;;;;9.60;2.42;;;;;;;9.12;100.00;101168.38;6257773;28;20144;-76
2022/10/23 05:44:17;;;;;;;3.13;2.05;;;;;;;9.12;100.00;101166.59;6262785;28;20060;-76
2022/10/23 05:47:18;;;;;;;2.95;1.90;;;;;;;9.12;100.00;101169.22;6253584;28;20053;-76
2022/10/23 05:50:21;;;;;;;2.95;1.50;;;;;;;9.13;100.00;101170.13;6255063;28;20049;-75
2022/10/23 05:53:23;;;;;;;3.25;1.70;;;;;;;9.13;100.00;101157.00;6260796;28;20515;-76
2022/10/23 05:56:24;;;;;;;3.92;1.77;;;;;;;9.13;100.00;101157.84;6260610;28;20181;-76
2022/10/23 05:59:25;;;;;;;4.40;1.60;;;;;;;9.17;100.00;101173.44;6262562;28;20052;-76
2022/10/23 06:02:27;;;;;;;3.75;1.63;;;;;;;9.17;100.00;101174.28;6274470;28;20053;-76
2022/10/23 06:05:30;;;;;;;4.43;2.05;;;;;;;9.18;100.00;101165.53;6274082;28;20045;-76
2022/10/23 06:08:32;;;;;;;3.35;1.73;;;;;;;9.18;100.00;101169.94;6274397;28;20531;-75
2022/10/23 06:11:34;;;;;;;13.18;2.05;;;;;;;9.18;100.00;101167.31;6273971;28;20049;-76
2022/10/23 06:14:35;;;;;;;5.40;2.20;;;;;;;9.20;100.00;101171.56;6274047;28;20052;-76
2022/10/23 06:17:36;;;;;;;5.72;1.92;;;;;;;9.20;100.00;101155.81;6274164;28;20053;-76
2022/10/23 06:20:39;;;;;;;2.35;1.65;;;;;;;9.22;100.00;101156.63;6273817;28;20053;-76
2022/10/23 06:23:42;;;;;;;2.88;1.60;;;;;;;9.26;100.00;101155.56;6274062;28;20416;-76
2022/10/23 06:26:44;;;;;;;6.43;1.98;;;;;;;9.29;100.00;101159.84;6274238;28;20053;-75
2022/10/23 06:29:46;;;;;;;2.78;1.90;;;;;;;9.31;100.00;101158.00;6273520;28;20489;-76
2022/10/23 06:32:47;;;;;;;3.22;1.80;;;;;;;9.33;100.00;101151.78;6274069;28;20045;-76
2022/10/23 06:35:50;;;;;;;3.45;1.80;;;;;;;9.35;100.00;101156.94;6273520;28;20052;-76
2022/10/23 06:38:51;;;;;;;2.30;1.67;;;;;;;9.37;100.00;101152.50;6273662;28;20045;-76
2022/10/23 06:41:53;;;;;;;2.30;1.55;;;;;;;9.41;100.00;101148.84;6272178;28;20049;-76
2022/10/23 06:44:54;;;;;;;2.92;1.48;;;;;;;9.43;100.00;101140.91;6273153;28;20041;-76
2022/10/23 06:47:56;;;;;;;3.00;1.90;;;;;;;9.47;100.00;101140.69;6273201;28;20048;-76
2022/10/23 06:50:59;;;;;;;4.40;1.90;;;;;;;9.47;100.00;101148.56;6272791;28;20052;-76
2022/10/23 06:54:00;;;;;;;7.20;1.73;;;;;;;9.50;100.00;101140.59;6272835;28;20217;-76
2022/10/23 06:57:02;;;;;;;4.43;2.10;;;;;;;9.54;100.00;101146.56;6273243;28;20102;-77
2022/10/23 07:00:04;;;;;;;5.78;2.55;;;;;;;9.60;100.00;101135.78;6273027;28;20056;-77
2022/10/23 07:03:07;;;;;;;6.93;2.67;;;;;;;9.65;100.00;101134.66;6270614;28;20044;-77
2022/10/23 07:06:11;;;;;;;5.68;1.77;;;;;;;9.68;100.00;101132.84;6264261;28;20131;-76
2022/10/23 07:09:12;;;;;;;5.50;2.72;;;;;;;9.72;100.00;101132.66;6285291;28;20407;-76
2022/10/23 07:12:14;;;;;;;5.10;2.40;;;;;;;9.77;100.00;101133.28;6296603;28;20496;-76
2022/10/23 07:15:15;;;;;;;5.35;3.20;;;;;;;9.83;100.00;101135.63;6296971;28;20044;-77
2022/10/23 07:18:18;;;;;;;6.78;2.70;;;;;;;9.90;100.00;101136.19;6297176;28;20048;-76
2022/10/23 07:21:21;;;;;;;12.48;4.47;;;;;;;9.96;100.00;101132.47;6296719;28;20416;-76
2022/10/23 07:24:22;;;;;;;11.57;5.10;;;;;;;10.03;100.00;101131.25;6296694;28;20044;-76
2022/10/23 07:27:24;;;;;;;17.67;5.72;;;;;;;10.11;100.00;101130.00;6297023;28;20389;-76
2022/10/23 07:30:25;;;;;;;11.52;4.95;;;;;;;10.19;100.00;101123.56;6296602;28;20048;-76
2022/10/23 07:33:27;;;;;;;19.65;7.07;;;;;;;10.29;100.00;101130.13;6297103;28;20048;-76
2022/10/23 07:36:30;;;;;;;14.43;5.55;;;;;;;10.36;100.00;101129.78;6296390;28;20515;-77
2022/10/23 07:39:31;;;;;;;8.43;3.72;;;;;;;10.44;100.00;101129.41;6296780;28;20534;-76
2022/10/23 07:42:33;;;;;;;13.48;5.32;;;;;;;10.53;100.00;101138.63;6296533;28;20048;-76
2022/10/23 07:45:34;;;;;;;8.57;4.13;;;;;;;10.59;100.00;101135.75;6296567;28;20052;-76
2022/10/23 07:48:36;;;;;;;17.42;5.60;;;;;;;10.63;100.00;101138.16;6296684;28;20048;-76
2022/10/23 07:51:39;;;;;;;9.73;4.35;;;;;;;10.71;100.00;101131.66;6295891;28;20056;-77
2022/10/23 07:54:40;;;;;;;14.65;4.63;;;;;;;10.77;100.00;101139.28;6296130;28;20049;-76
2022/10/23 07:57:42;;;;;;;7.45;3.28;;;;;;;10.82;100.00;101135.50;6296546;28;20045;-76
2022/10/23 08:00:44;;;;;;;8.93;3.60;;;;;;;10.87;100.00;101128.22;6296184;28;20055;-76
2022/10/23 08:03:45;;;;;;;6.82;2.97;;;;;;;10.93;100.00;101129.69;6296049;28;20048;-76
2022/10/23 08:06:48;;;;;;;7.03;3.58;;;;;;;10.96;100.00;101140.09;6296302;28;20416;-76
2022/10/23 08:09:50;;;;;;;4.40;2.92;;;;;;;11.01;100.00;101145.13;6295875;28;20059;-76
2022/10/23 08:12:51;;;;;;;7.13;2.45;;;;;;;11.05;100.00;101134.38;6296803;28;20049;-76
2022/10/23 08:15:54;;;;;;;6.00;2.95;;;;;;;11.12;100.00;101129.66;6295818;28;20049;-76
2022/10/23 08:18:56;;;;;;;4.22;2.60;;;;;;;11.19;100.00;101133.69;6296346;28;20048;-76
2022/10/23 08:21:58;;;;;;;2.60;1.98;;;;;;;11.24;100.00;101133.47;6295916;28;20045;-77
2022/10/23 08:25:00;;;;;;;5.78;2.13;;;;;;;11.30;100.00;101130.50;6295768;28;20048;-76
2022/10/23 08:28:01;;;;;;;4.53;2.05;;;;;;;11.35;100.00;101139.03;6296208;28;20523;-76
2022/10/23 08:31:08;;;;;;;4.75;2.33;;;;;;;11.39;100.00;101137.94;6295770;28;20060;-76
2022/10/23 08:34:09;;;;;;;3.53;2.03;;;;;;;11.47;100.00;101124.41;6295705;28;20052;-76
2022/10/23 08:37:12;;;;;;;3.38;1.65;;;;;;;11.51;100.00;101123.31;6295977;28;20052;-77
2022/10/23 08:40:15;;;;;;;3.13;1.95;;;;;;;11.55;100.00;101111.72;6295496;28;20444;-76
2022/10/23 08:43:23;;;;;;;1.70;1.45;;;;;;;11.59;100.00;101110.63;6295936;28;20044;-76
2022/10/23 08:46:28;;;;;;;12.30;2.10;;;;;;;11.64;100.00;101111.22;6295696;28;20048;-76
2022/10/23 08:49:47;;;;;;;3.15;1.75;;;;;;;11.67;100.00;101117.19;6295747;28;20056;-76
2022/10/23 08:52:54;;;;;;;3.38;1.83;;;;;;;11.69;100.00;101122.38;6296307;28;20048;-77
2022/10/23 08:56:01;;;;;;;3.70;1.73;;;;;;;11.71;100.00;101112.59;6295374;28;20044;-77
2022/10/23 08:59:11;;;;;;;3.22;2.03;;;;;;;11.79;100.00;101099.88;6295960;28;20063;-77
2022/10/23 09:02:17;;;;;;;3.40;1.83;;;;;;;11.88;100.00;101091.53;6295311;28;20075;-76
2022/10/23 09:05:24;;;;;;;4.20;2.00;;;;;;;11.96;100.00;101091.13;6297837;28;20053;-76
2022/10/23 09:08:39;;;;;;;3.72;2.38;;;;;;;12.04;100.00;101090.72;6300483;28;20432;-77
2022/10/23 09:11:48;;;;;;;3.92;1.75;;;;;;;12.11;100.00;101084.19;6299999;28;20048;-76
2022/10/23 09:15:00;;;;;;;2.93;1.80;;;;;;;12.17;100.00;101086.47;6299985;28;20045;-76
2022/10/23 09:18:11;;;;;;;4.45;1.70;;;;;;;12.21;100.00;101085.38;6300153;28;20056;-76
2022/10/23 09:21:12;;;;;;;2.95;1.70;;;;;;;12.27;100.00;101100.88;6299838;28;20055;-76
2022/10/23 09:24:17;;;;;;;1.63;1.13;;;;;;;12.32;100.00;101092.72;6299749;28;20044;-76
2022/10/23 09:27:18;;;;;;;3.83;1.45;;;;;;;12.36;100.00;101100.38;6300209;28;20191;-76
2022/10/23 09:30:29;;;;;;;2.58;1.50;;;;;;;12.41;100.00;101095.69;6299483;28;20045;-76
2022/10/23 09:33:31;;;;;;;6.72;1.55;;;;;;;12.45;100.00;101093.75;6299838;28;20055;-76
2022/10/23 09:36:33;;;;;;;3.72;1.77;;;;;;;12.50;100.00;101086.41;6299484;28;20498;-76
2022/10/23 09:39:36;;;;;;;3.60;1.90;;;;;;;12.53;100.00;101077.47;6299456;28;20123;-76
2022/10/23 09:42:38;;;;;;;1.48;1.20;;;;;;;12.57;100.00;101079.84;6299139;28;20496;-76
2022/10/23 09:45:41;;;;;;;3.20;1.55;;;;;;;12.60;100.00;101071.78;6299284;28;20135;-76
2022/10/23 09:48:42;;;;;;;1.25;0.95;;;;;;;12.66;100.00;101081.97;6299482;28;20415;-76
2022/10/23 09:51:56;;;;;;;2.33;1.52;;;;;;;12.71;100.00;101076.44;6298963;28;20056;-76
2022/10/23 09:55:01;;;;;;;2.60;1.40;;;;;;;12.80;100.00;101081.19;6299179;28;20048;-77
2022/10/23 09:58:02;;;;;;;3.20;1.23;;;;;;;12.86;100.00;101077.38;6299135;28;20427;-77
2022/10/23 10:01:04;;;;;;;3.28;1.50;;;;;;;12.90;100.00;101085.00;6298997;28;20056;-76
2022/10/23 10:04:05;;;;;;;2.78;1.40;;;;;;;12.95;100.00;101075.03;6298824;28;20048;-76
2022/10/23 10:07:19;;;;;;;1.42;1.23;;;;;;;13.02;100.00;101062.31;6299227;28;20045;-77
2022/10/23 10:10:23;;;;;;;2.67;1.40;;;;;;;13.09;100.00;101068.97;6298902;28;20056;-77
2022/10/23 10:13:45;;;;;;;1.95;1.40;;;;;;;13.11;100.00;101051.22;6298777;28;20419;-76
2022/10/23 10:16:51;;;;;;;6.82;1.60;;;;;;;13.22;100.00;101053.28;6298520;28;20056;-77
2022/10/23 10:20:03;;;;;;;7.03;1.27;;;;;;;13.32;100.00;101046.50;6298547;28;20048;-76
2022/10/23 10:23:13;;;;;;;2.38;1.63;;;;;;;13.42;100.00;101034.44;6299152;28;20048;-77
2022/10/23 10:26:21;;;;;;;;;;;;;;;13.49;100.00;101032.31;6298870;28;20044;-76
2022/10/23 10:29:34;;;;;;;2.53;1.05;;;;;;;13.52;100.00;101032.09;6298582;28;19920;-76
2022/10/23 10:32:43;;;;;;;1.63;1.20;;;;;;;13.52;100.00;101020.69;6298320;28;20052;-76
2022/10/23 10:35:56;;;;;;;4.28;1.15;;;;;;;13.58;100.00;101025.59;6297889;28;20519;-77
2022/10/23 10:39:01;;;;;;;1.55;1.25;;;;;;;13.60;100.00;101014.00;6298352;28;20048;-77
2022/10/23 10:42:25;;;;;;;5.10;1.48;;;;;;;13.69;100.00;101010.78;6297761;28;20403;-77
2022/10/23 10:45:32;;;;;;;3.25;1.50;;;;;;;13.78;100.00;101005.88;6297975;28;20056;-77
2022/10/23 10:48:47;;;;;;;3.42;0.98;;;;;;;13.85;100.00;101007.19;6298131;28;20484;-76
2022/10/23 10:52:00;;;;;;;2.35;1.50;;;;;;;13.90;100.00;100999.84;6297610;28;20053;-76
2022/10/23 10:55:10;;;;;;;1.98;1.30;;;;;;;13.93;100.00;100996.97;6297426;28;20053;-77
2022/10/23 10:58:18;;;;;;;1.85;1.25;;;;;;;14.00;100.00;100992.16;6297898;28;20048;-76
2022/10/23 11:01:25;;;;;;;2.88;1.40;;;;;;;14.06;100.00;100989.13;6297254;28;20052;-77
2022/10/23 11:04:34;;;;;;;2.60;1.00;;;;;;;14.12;100.00;100988.72;6297368;28;20528;-76
2022/10/23 11:07:41;;;;;;;2.00;1.20;;;;;;;14.19;100.00;100982.94;6297648;28;20045;-77
2022/10/23 11:10:47;;;;;;;3.13;0.95;;;;;;;14.24;100.00;100982.66;6297272;28;20057;-77
2022/10/23 11:13:52;;;;;;;1.20;1.02;;;;;;;14.26;100.00;100967.56;6296995;28;20427;-76
2022/10/23 11:17:01;;;;;;;4.68;1.10;;;;;;;14.33;100.00;100960.06;6297299;28;20453;-77
2022/10/23 11:20:14;;;;;;;4.20;0.97;;;;;;;14.37;100.00;100957.09;6297023;28;20056;-76
2022/10/23 11:23:37;;;;;;;2.08;0.93;;;;;;;14.45;100.00;100956.63;6297341;28;20282;-76
2022/10/23 11:26:55;;;;;;;1.83;1.15;;;;;;;14.52;100.00;100959.72;6296393;28;20051;-77
2022/10/23 11:30:12;;;;;;;2.33;1.05;;;;;;;14.58;100.00;100962.81;6296595;28;20113;-76
2022/10/23 11:33:55;;;;;;;3.50;1.30;;;;;;;14.67;100.00;100948.09;6297071;28;20055;-76
2022/10/23 11:37:00;;;;;;;1.10;0.90;;;;;;;14.78;100.00;100947.41;6295171;28;20056;-76
2022/10/23 11:40:17;;;;;;;6.47;1.13;;;;;;;14.91;100.00;100942.97;6296502;28;20114;-77
2022/10/23 11:43:32;;;;;;;1.42;0.98;;;;;;;15.02;100.00;100936.94;6296928;28;20048;-76
2022/10/23 11:46:36;;;;;;;4.70;1.20;;;;;;;15.12;100.00;100930.88;6296325;28;20527;-77
2022/10/23 11:49:38;;;;;;;0.77;0.73;;;;;;;15.23;100.00;100923.06;6296919;28;20056;-77
2022/10/23 11:52:51;;;;;;;2.55;1.42;;;;;;;15.44;100.00;100909.25;6296634;28;20076;-76
2022/10/23 11:55:59;;;;;;;3.08;0.80;;;;;;;15.59;100.00;100897.56;6296238;28;20049;-77
2022/10/23 11:59:21;;;;;;;3.03;1.33;;;;;;;15.62;100.00;100891.19;6296371;28;20049;-77
2022/10/23 12:02:32;;;;;;;0.60;0.60;;;;;;;15.63;100.00;100879.66;6296402;28;20048;-76
2022/10/23 12:05:39;;;;;;;2.22;0.90;;;;;;;15.63;100.00;100884.97;6296033;28;20083;-77
2022/10/23 12:08:41;;;;;;;1.05;0.80;;;;;;;15.68;100.00;100878.38;6296684;28;20055;-76
2022/10/23 12:11:44;;;;;;;1.42;1.08;;;;;;;15.71;100.00;100883.47;6295729;28;20059;-76
2022/10/23 12:14:48;;;;;;;1.67;0.75;;;;;;;15.69;100.00;100876.59;6296379;28;20048;-77
2022/10/23 12:17:53;;;;;;;1.80;0.73;;;;;;;15.70;100.00;100857.06;6296119;28;20052;-77
2022/10/23 12:20:58;;;;;;;1.95;0.80;;;;;;;15.70;100.00;100855.25;6296324;28;20451;-76
2022/10/23 12:24:13;;;;;;;1.70;0.93;;;;;;;15.69;100.00;100860.69;6295668;28;20048;-76
2022/10/23 12:27:25;;;;;;;1.55;0.90;;;;;;;15.68;100.00;100846.59;6296245;28;20067;-76
2022/10/23 12:30:34;;;;;;;1.67;0.90;;;;;;;15.66;100.00;100835.25;6295524;28;20424;-77
2022/10/23 12:33:46;;;;;;;1.85;0.75;;;;;;;15.66;100.00;100822.00;6283163;28;20049;-77
2022/10/23 12:37:01;;;;;;;0.50;0.50;;;;;;;15.67;100.00;100814.94;6280905;28;20420;-76
2022/10/23 12:40:07;;;;;;;2.35;0.90;;;;;;;15.76;100.00;100806.31;6285321;28;20114;-76
2022/10/23 12:43:23;;;;;;;1.05;0.70;;;;;;;15.78;100.00;100803.53;6286921;28;20052;-76
2022/10/23 12:46:30;;;;;;;2.58;0.68;;;;;;;15.76;100.00;100795.69;6279058;28;20417;-77
2022/10/23 12:49:34;;;;;;;2.58;0.80;;;;;;;15.74;100.00;100794.94;6270332;28;20052;-77
2022/10/23 12:52:38;;;;;;;4.60;0.80;;;;;;;15.71;100.00;100801.34;6278280;28;20049;-76
2022/10/23 12:55:49;;;;;;;0.57;0.57;;;;;;;15.72;100.00;100788.94;6283962;28;20439;-75
2022/10/23 12:58:53;;;;;;;0.95;0.60;;;;;;;15.69;100.00;100773.25;6275754;28;20052;-76
2022/10/23 13:01:55;;;;;;;2.40;1.20;;;;;;;15.67;100.00;100786.63;6273046;28;20044;-76
2022/10/23 13:05:00;;;;;;;2.70;0.80;;;;;;;15.64;100.00;100776.25;6292145;28;20480;-76
2022/10/23 13:08:02;;;;;;;2.75;1.15;;;;;;;15.65;100.00;100779.72;6300260;28;20642;-77
2022/10/23 13:11:05;;;;;;;1.02;0.80;;;;;;;15.63;100.00;100765.75;6300496;28;20052;-77
2022/10/23 13:14:11;;;;;;;0.93;0.70;;;;;;;15.60;100.00;100768.59;6300015;28;20044;-77
2022/10/23 13:17:13;;;;;;;2.10;0.82;;;;;;;15.57;100.00;100769.66;6300786;28;20052;-76
2022/10/23 13:20:26;;;;;;;0.55;0.52;;;;;;;15.60;100.00;100769.44;6299998;28;20045;-76
2022/10/23 13:23:31;;;;;;;3.00;0.75;;;;;;;15.58;100.00;100763.44;6300382;28;20553;-76
2022/10/23 13:26:34;;;;;;;1.50;0.70;;;;;;;15.56;100.00;100754.72;6299835;28;20052;-76
2022/10/23 13:29:36;;;;;;;2.45;0.70;;;;;;;15.56;100.00;100751.25;6299831;28;20419;-76
2022/10/23 13:32:37;;;;;;;1.00;0.70;;;;;;;15.53;100.00;100723.16;6299686;28;20154;-76
2022/10/23 13:35:40;;;;;;;5.55;0.98;;;;;;;15.54;100.00;100734.63;6299679;28;20049;-76
2022/10/23 13:38:43;;;;;;;5.28;0.70;;;;;;;15.56;100.00;100728.25;6299946;28;20060;-76
2022/10/23 13:41:46;;;;;;;4.68;0.93;;;;;;;15.55;100.00;100723.06;6299032;28;20060;-76
2022/10/23 13:44:48;;;;;;;2.75;0.90;;;;;;;15.57;100.00;100715.84;6299582;28;20056;-76
2022/10/23 13:47:50;;;;;;;2.38;1.00;;;;;;;15.56;100.00;100700.91;6299457;28;20051;-76
2022/10/23 13:50:53;;;;;;;0.60;0.60;;;;;;;15.56;100.00;100695.63;6298693;28;20483;-76
2022/10/23 13:53:55;;;;;;;2.55;0.80;;;;;;;15.55;100.00;100704.53;6298954;28;20075;-76
2022/10/23 13:56:57;;;;;;;1.08;0.68;;;;;;;15.55;100.00;100700.06;6299485;28;20492;-76
2022/10/23 13:59:58;;;;;;;1.85;1.05;;;;;;;15.56;100.00;100700.91;6298765;28;20055;-76
2022/10/23 14:03:00;;;;;;;1.75;0.80;;;;;;;15.56;100.00;100699.09;6299387;28;20616;-76
2022/10/23 14:06:02;;;;;;;1.90;0.82;;;;;;;15.55;100.00;100697.44;6298805;28;20053;-76
2022/10/23 14:09:05;;;;;;;1.30;0.85;;;;;;;15.55;100.00;100704.53;6299145;28;20449;-76
2022/10/23 14:12:07;;;;;;;1.85;0.80;;;;;;;15.57;100.00;100698.13;6298701;28;20519;-76